sensor_id;sensor_type;location;lat;lon;timestamp;temperature;humidity
11848;DHT22;5983;49.966;8.052;2023-05-27T00:00:08;13.10;99.90
11848;DHT22;5983;49.966;8.052;2023-05-27T00:02:37;13.10;99.90
11848;DHT22;5983;49.966;8.052;2023-05-27T00:05:06;13.00;99.90
11848;DHT22;5983;49.966;8.052;2023-05-27T00:07:33;13.00;99.90
11848;DHT22;5983;49.966;8.052;2023-05-27T00:10:00;13.00;99.90
11848;DHT22;5983;49.966;8.052;2023-05-27T00:12:26;13.00;99.90
11848;DHT22;5983;49.966;8.052;2023-05-27T00:14:53;13.00;99.90
11848;DHT22;5983;49.966;8.052;2023-05-27T00:17:20;12.90;99.90
11848;DHT22;5983;49.966;8.052;2023-05-27T00:20:01;12.90;99.90
11848;DHT22;5983;49.966;8.052;2023-05-27T00:22:34;12.80;99.90
11848;DHT22;5983;49.966;8.052;2023-05-27T00:25:01;12.80;99.90
11848;DHT22;5983;49.966;8.052;2023-05-27T00:27:28;12.70;99.90
11848;DHT22;5983;49.966;8.052;2023-05-27T00:32:52;12.70;99.90
11848;DHT22;5983;49.966;8.052;2023-05-27T00:35:19;12.60;99.90
11848;DHT22;5983;49.966;8.052;2023-05-27T00:37:47;12.60;99.90
11848;DHT22;5983;49.966;8.052;2023-05-27T00:40:14;12.70;99.90
11848;DHT22;5983;49.966;8.052;2023-05-27T00:42:43;12.70;99.90
11848;DHT22;5983;49.966;8.052;2023-05-27T00:45:11;12.70;99.90
11848;DHT22;5983;49.966;8.052;2023-05-27T00:47:38;12.60;99.90
11848;DHT22;5983;49.966;8.052;2023-05-27T00:50:06;12.60;99.90
11848;DHT22;5983;49.966;8.052;2023-05-27T00:52:33;12.50;99.90
11848;DHT22;5983;49.966;8.052;2023-05-27T00:55:01;12.50;99.90
11848;DHT22;5983;49.966;8.052;2023-05-27T00:57:28;12.40;99.90
11848;DHT22;5983;49.966;8.052;2023-05-27T01:03:17;12.40;99.90
11848;DHT22;5983;49.966;8.052;2023-05-27T01:05:45;12.30;99.90
11848;DHT22;5983;49.966;8.052;2023-05-27T01:08:16;12.20;99.90
11848;DHT22;5983;49.966;8.052;2023-05-27T01:10:52;12.20;99.90
11848;DHT22;5983;49.966;8.052;2023-05-27T01:13:23;12.10;99.90
11848;DHT22;5983;49.966;8.052;2023-05-27T01:16:05;12.10;99.90
11848;DHT22;5983;49.966;8.052;2023-05-27T01:18:37;12.10;99.90
11848;DHT22;5983;49.966;8.052;2023-05-27T01:21:09;12.20;99.90
11848;DHT22;5983;49.966;8.052;2023-05-27T01:23:40;12.10;99.90
11848;DHT22;5983;49.966;8.052;2023-05-27T01:26:19;12.00;99.90
11848;DHT22;5983;49.966;8.052;2023-05-27T01:28:46;12.00;99.90
11848;DHT22;5983;49.966;8.052;2023-05-27T01:31:15;11.90;99.90
11848;DHT22;5983;49.966;8.052;2023-05-27T01:33:46;11.90;99.90
11848;DHT22;5983;49.966;8.052;2023-05-27T01:36:17;11.90;99.90
11848;DHT22;5983;49.966;8.052;2023-05-27T01:38:50;11.90;99.90
11848;DHT22;5983;49.966;8.052;2023-05-27T01:41:19;11.80;99.90
11848;DHT22;5983;49.966;8.052;2023-05-27T01:43:46;11.70;99.90
11848;DHT22;5983;49.966;8.052;2023-05-27T01:46:14;11.70;99.90
11848;DHT22;5983;49.966;8.052;2023-05-27T01:48:41;11.70;99.90
11848;DHT22;5983;49.966;8.052;2023-05-27T01:51:08;11.70;99.90
11848;DHT22;5983;49.966;8.052;2023-05-27T01:53:35;11.60;99.90
11848;DHT22;5983;49.966;8.052;2023-05-27T01:56:04;11.60;99.90
11848;DHT22;5983;49.966;8.052;2023-05-27T02:01:52;11.50;99.90
11848;DHT22;5983;49.966;8.052;2023-05-27T02:07:15;11.40;99.90
11848;DHT22;5983;49.966;8.052;2023-05-27T02:09:44;11.40;99.90
11848;DHT22;5983;49.966;8.052;2023-05-27T02:12:12;11.40;99.90
11848;DHT22;5983;49.966;8.052;2023-05-27T02:14:39;11.40;99.90
11848;DHT22;5983;49.966;8.052;2023-05-27T02:17:06;11.40;99.90
11848;DHT22;5983;49.966;8.052;2023-05-27T02:19:33;11.40;99.90
11848;DHT22;5983;49.966;8.052;2023-05-27T02:22:00;11.30;99.90
11848;DHT22;5983;49.966;8.052;2023-05-27T02:24:27;11.20;99.90
11848;DHT22;5983;49.966;8.052;2023-05-27T02:26:53;11.20;99.90
11848;DHT22;5983;49.966;8.052;2023-05-27T02:29:22;11.20;99.90
11848;DHT22;5983;49.966;8.052;2023-05-27T02:31:48;11.10;99.90
11848;DHT22;5983;49.966;8.052;2023-05-27T02:34:15;11.10;99.90
11848;DHT22;5983;49.966;8.052;2023-05-27T02:36:42;11.10;99.90
11848;DHT22;5983;49.966;8.052;2023-05-27T02:39:09;11.10;99.90
11848;DHT22;5983;49.966;8.052;2023-05-27T02:41:36;11.10;99.90
11848;DHT22;5983;49.966;8.052;2023-05-27T02:44:03;11.10;99.90
11848;DHT22;5983;49.966;8.052;2023-05-27T02:46:32;11.10;99.90
11848;DHT22;5983;49.966;8.052;2023-05-27T02:48:59;11.10;99.90
11848;DHT22;5983;49.966;8.052;2023-05-27T02:51:27;11.10;99.90
11848;DHT22;5983;49.966;8.052;2023-05-27T02:53:54;11.10;99.90
11848;DHT22;5983;49.966;8.052;2023-05-27T02:56:21;11.00;99.90
11848;DHT22;5983;49.966;8.052;2023-05-27T02:58:51;11.00;99.90
11848;DHT22;5983;49.966;8.052;2023-05-27T03:01:18;11.00;99.90
11848;DHT22;5983;49.966;8.052;2023-05-27T03:03:46;11.00;99.90
11848;DHT22;5983;49.966;8.052;2023-05-27T03:06:13;10.90;99.90
11848;DHT22;5983;49.966;8.052;2023-05-27T03:08:39;10.90;99.90
11848;DHT22;5983;49.966;8.052;2023-05-27T03:11:06;10.90;99.90
11848;DHT22;5983;49.966;8.052;2023-05-27T03:13:33;10.90;99.90
11848;DHT22;5983;49.966;8.052;2023-05-27T03:16:00;10.90;99.90
11848;DHT22;5983;49.966;8.052;2023-05-27T03:18:27;10.90;99.90
11848;DHT22;5983;49.966;8.052;2023-05-27T03:20:55;10.90;99.90
11848;DHT22;5983;49.966;8.052;2023-05-27T03:23:22;10.80;99.90
11848;DHT22;5983;49.966;8.052;2023-05-27T03:25:48;10.70;99.90
11848;DHT22;5983;49.966;8.052;2023-05-27T03:28:15;10.70;99.90
11848;DHT22;5983;49.966;8.052;2023-05-27T03:30:42;10.60;99.90
11848;DHT22;5983;49.966;8.052;2023-05-27T03:33:09;10.60;99.90
11848;DHT22;5983;49.966;8.052;2023-05-27T03:35:36;10.60;99.90
11848;DHT22;5983;49.966;8.052;2023-05-27T03:38:04;10.50;99.90
11848;DHT22;5983;49.966;8.052;2023-05-27T03:40:31;10.50;99.90
11848;DHT22;5983;49.966;8.052;2023-05-27T03:42:58;10.40;99.90
11848;DHT22;5983;49.966;8.052;2023-05-27T03:45:24;10.40;99.90
11848;DHT22;5983;49.966;8.052;2023-05-27T03:48:10;10.30;99.90
11848;DHT22;5983;49.966;8.052;2023-05-27T03:50:36;10.40;99.90
11848;DHT22;5983;49.966;8.052;2023-05-27T03:53:05;10.40;99.90
11848;DHT22;5983;49.966;8.052;2023-05-27T03:55:32;10.40;99.90
11848;DHT22;5983;49.966;8.052;2023-05-27T03:57:58;10.40;99.90
11848;DHT22;5983;49.966;8.052;2023-05-27T04:00:25;10.50;99.90
11848;DHT22;5983;49.966;8.052;2023-05-27T04:02:53;10.40;99.90
11848;DHT22;5983;49.966;8.052;2023-05-27T04:05:21;10.40;99.90
11848;DHT22;5983;49.966;8.052;2023-05-27T04:07:48;10.40;99.90
11848;DHT22;5983;49.966;8.052;2023-05-27T04:10:16;10.40;99.90
11848;DHT22;5983;49.966;8.052;2023-05-27T04:12:43;10.40;99.90
11848;DHT22;5983;49.966;8.052;2023-05-27T04:15:10;10.40;99.90
11848;DHT22;5983;49.966;8.052;2023-05-27T04:17:37;10.40;99.90
11848;DHT22;5983;49.966;8.052;2023-05-27T04:20:04;10.50;99.90
11848;DHT22;5983;49.966;8.052;2023-05-27T04:22:38;10.50;99.90
11848;DHT22;5983;49.966;8.052;2023-05-27T04:25:06;10.60;99.90
11848;DHT22;5983;49.966;8.052;2023-05-27T04:27:34;10.70;99.90
11848;DHT22;5983;49.966;8.052;2023-05-27T04:30:02;10.70;99.90
11848;DHT22;5983;49.966;8.052;2023-05-27T04:32:29;10.80;99.90
11848;DHT22;5983;49.966;8.052;2023-05-27T04:34:58;10.80;99.90
11848;DHT22;5983;49.966;8.052;2023-05-27T04:37:25;10.90;99.90
11848;DHT22;5983;49.966;8.052;2023-05-27T04:39:53;11.00;99.90
11848;DHT22;5983;49.966;8.052;2023-05-27T04:42:22;11.10;99.90
11848;DHT22;5983;49.966;8.052;2023-05-27T04:44:51;11.20;99.90
11848;DHT22;5983;49.966;8.052;2023-05-27T04:47:17;11.30;99.90
11848;DHT22;5983;49.966;8.052;2023-05-27T04:49:47;11.30;99.90
11848;DHT22;5983;49.966;8.052;2023-05-27T04:52:14;11.40;99.90
11848;DHT22;5983;49.966;8.052;2023-05-27T04:54:40;11.50;99.90
11848;DHT22;5983;49.966;8.052;2023-05-27T04:57:07;11.60;99.90
11848;DHT22;5983;49.966;8.052;2023-05-27T04:59:35;11.70;99.90
11848;DHT22;5983;49.966;8.052;2023-05-27T05:02:26;11.80;99.90
11848;DHT22;5983;49.966;8.052;2023-05-27T05:05:00;11.90;99.90
11848;DHT22;5983;49.966;8.052;2023-05-27T05:07:27;12.00;99.90
11848;DHT22;5983;49.966;8.052;2023-05-27T05:09:54;12.00;99.90
11848;DHT22;5983;49.966;8.052;2023-05-27T05:12:20;12.10;99.90
11848;DHT22;5983;49.966;8.052;2023-05-27T05:14:47;12.20;99.90
11848;DHT22;5983;49.966;8.052;2023-05-27T05:17:14;12.20;99.90
11848;DHT22;5983;49.966;8.052;2023-05-27T05:19:43;12.30;99.90
11848;DHT22;5983;49.966;8.052;2023-05-27T05:22:10;12.40;99.90
11848;DHT22;5983;49.966;8.052;2023-05-27T05:24:38;12.50;99.90
11848;DHT22;5983;49.966;8.052;2023-05-27T05:27:05;12.70;99.90
11848;DHT22;5983;49.966;8.052;2023-05-27T05:29:32;12.70;99.90
11848;DHT22;5983;49.966;8.052;2023-05-27T05:31:59;12.90;99.90
11848;DHT22;5983;49.966;8.052;2023-05-27T05:34:26;13.00;99.90
11848;DHT22;5983;49.966;8.052;2023-05-27T05:36:54;13.10;99.90
11848;DHT22;5983;49.966;8.052;2023-05-27T05:39:21;13.20;99.90
11848;DHT22;5983;49.966;8.052;2023-05-27T05:41:48;13.40;99.90
11848;DHT22;5983;49.966;8.052;2023-05-27T05:44:15;13.50;99.90
11848;DHT22;5983;49.966;8.052;2023-05-27T05:46:42;13.50;99.90
11848;DHT22;5983;49.966;8.052;2023-05-27T05:52:31;13.80;99.90
11848;DHT22;5983;49.966;8.052;2023-05-27T05:54:58;14.00;99.90
11848;DHT22;5983;49.966;8.052;2023-05-27T05:57:25;14.20;99.90
11848;DHT22;5983;49.966;8.052;2023-05-27T05:59:56;14.30;99.90
11848;DHT22;5983;49.966;8.052;2023-05-27T06:02:23;14.50;99.90
11848;DHT22;5983;49.966;8.052;2023-05-27T06:04:51;14.60;99.90
11848;DHT22;5983;49.966;8.052;2023-05-27T06:07:18;14.70;99.90
11848;DHT22;5983;49.966;8.052;2023-05-27T06:09:46;14.80;99.90
11848;DHT22;5983;49.966;8.052;2023-05-27T06:12:12;15.00;99.90
11848;DHT22;5983;49.966;8.052;2023-05-27T06:14:39;15.10;99.90
11848;DHT22;5983;49.966;8.052;2023-05-27T06:17:06;15.20;99.90
11848;DHT22;5983;49.966;8.052;2023-05-27T06:19:33;15.40;99.90
11848;DHT22;5983;49.966;8.052;2023-05-27T06:22:00;15.50;99.90
11848;DHT22;5983;49.966;8.052;2023-05-27T06:24:26;15.70;99.90
11848;DHT22;5983;49.966;8.052;2023-05-27T06:26:54;15.90;99.90
11848;DHT22;5983;49.966;8.052;2023-05-27T06:29:21;16.10;99.90
11848;DHT22;5983;49.966;8.052;2023-05-27T06:31:48;16.20;99.90
11848;DHT22;5983;49.966;8.052;2023-05-27T06:34:15;16.40;99.90
11848;DHT22;5983;49.966;8.052;2023-05-27T06:36:42;16.50;99.90
11848;DHT22;5983;49.966;8.052;2023-05-27T06:39:09;16.60;99.90
11848;DHT22;5983;49.966;8.052;2023-05-27T06:41:35;16.70;99.90
11848;DHT22;5983;49.966;8.052;2023-05-27T06:44:04;16.80;99.90
11848;DHT22;5983;49.966;8.052;2023-05-27T06:46:30;16.80;99.90
11848;DHT22;5983;49.966;8.052;2023-05-27T06:48:57;16.90;99.90
11848;DHT22;5983;49.966;8.052;2023-05-27T06:51:24;16.90;99.90
11848;DHT22;5983;49.966;8.052;2023-05-27T06:53:52;17.00;99.90
11848;DHT22;5983;49.966;8.052;2023-05-27T06:56:19;17.20;99.90
11848;DHT22;5983;49.966;8.052;2023-05-27T06:58:45;17.20;99.90
11848;DHT22;5983;49.966;8.052;2023-05-27T07:01:14;17.10;99.90
11848;DHT22;5983;49.966;8.052;2023-05-27T07:03:41;17.20;99.90
11848;DHT22;5983;49.966;8.052;2023-05-27T07:06:08;17.20;99.90
11848;DHT22;5983;49.966;8.052;2023-05-27T07:08:34;17.30;99.90
11848;DHT22;5983;49.966;8.052;2023-05-27T07:11:01;17.40;99.90
11848;DHT22;5983;49.966;8.052;2023-05-27T07:13:28;17.50;99.90
11848;DHT22;5983;49.966;8.052;2023-05-27T07:15:55;17.60;99.90
11848;DHT22;5983;49.966;8.052;2023-05-27T07:18:23;17.80;99.90
11848;DHT22;5983;49.966;8.052;2023-05-27T07:20:50;18.00;99.90
11848;DHT22;5983;49.966;8.052;2023-05-27T07:23:16;18.00;99.90
11848;DHT22;5983;49.966;8.052;2023-05-27T07:25:43;18.10;99.90
11848;DHT22;5983;49.966;8.052;2023-05-27T07:28:10;18.20;99.90
11848;DHT22;5983;49.966;8.052;2023-05-27T07:30:37;18.30;99.90
11848;DHT22;5983;49.966;8.052;2023-05-27T07:33:03;18.30;99.90
11848;DHT22;5983;49.966;8.052;2023-05-27T07:35:32;18.40;99.90
11848;DHT22;5983;49.966;8.052;2023-05-27T07:37:58;18.50;99.90
11848;DHT22;5983;49.966;8.052;2023-05-27T07:40:25;18.50;99.90
11848;DHT22;5983;49.966;8.052;2023-05-27T07:42:52;18.60;99.90
11848;DHT22;5983;49.966;8.052;2023-05-27T07:45:19;18.70;99.90
11848;DHT22;5983;49.966;8.052;2023-05-27T07:47:47;18.90;99.90
11848;DHT22;5983;49.966;8.052;2023-05-27T07:50:14;19.00;99.90
11848;DHT22;5983;49.966;8.052;2023-05-27T07:52:42;19.10;99.90
11848;DHT22;5983;49.966;8.052;2023-05-27T07:55:09;19.10;99.90
11848;DHT22;5983;49.966;8.052;2023-05-27T07:57:39;19.20;99.90
11848;DHT22;5983;49.966;8.052;2023-05-27T08:00:07;19.40;99.90
11848;DHT22;5983;49.966;8.052;2023-05-27T08:02:35;19.50;98.80
11848;DHT22;5983;49.966;8.052;2023-05-27T08:05:02;19.60;98.40
11848;DHT22;5983;49.966;8.052;2023-05-27T08:14:19;20.00;96.90
11848;DHT22;5983;49.966;8.052;2023-05-27T08:16:50;20.10;96.70
11848;DHT22;5983;49.966;8.052;2023-05-27T08:19:17;20.20;96.20
11848;DHT22;5983;49.966;8.052;2023-05-27T08:21:44;20.30;95.70
11848;DHT22;5983;49.966;8.052;2023-05-27T08:24:11;20.30;95.60
11848;DHT22;5983;49.966;8.052;2023-05-27T08:26:39;20.30;95.90
11848;DHT22;5983;49.966;8.052;2023-05-27T08:34:11;20.50;94.50
11848;DHT22;5983;49.966;8.052;2023-05-27T08:36:38;20.60;94.80
11848;DHT22;5983;49.966;8.052;2023-05-27T08:39:04;20.60;94.80
11848;DHT22;5983;49.966;8.052;2023-05-27T08:41:37;20.70;93.40
11848;DHT22;5983;49.966;8.052;2023-05-27T08:44:05;20.70;93.80
11848;DHT22;5983;49.966;8.052;2023-05-27T08:46:32;20.70;93.40
11848;DHT22;5983;49.966;8.052;2023-05-27T08:49:00;20.70;93.40
11848;DHT22;5983;49.966;8.052;2023-05-27T08:51:29;20.80;94.30
11848;DHT22;5983;49.966;8.052;2023-05-27T08:53:56;21.00;94.80
11848;DHT22;5983;49.966;8.052;2023-05-27T08:56:23;21.20;93.40
11848;DHT22;5983;49.966;8.052;2023-05-27T08:58:50;21.30;91.90
11848;DHT22;5983;49.966;8.052;2023-05-27T09:01:19;21.30;92.40
11848;DHT22;5983;49.966;8.052;2023-05-27T09:03:46;21.50;92.70
11848;DHT22;5983;49.966;8.052;2023-05-27T09:06:13;21.60;92.70
11848;DHT22;5983;49.966;8.052;2023-05-27T09:08:41;21.80;94.10
11848;DHT22;5983;49.966;8.052;2023-05-27T09:11:16;21.90;92.70
11848;DHT22;5983;49.966;8.052;2023-05-27T09:13:46;22.00;92.30
11848;DHT22;5983;49.966;8.052;2023-05-27T09:18:30;22.30;95.20
11848;DHT22;5983;49.966;8.052;2023-05-27T09:20:59;23.20;94.20
11848;DHT22;5983;49.966;8.052;2023-05-27T09:23:27;23.30;91.80
11848;DHT22;5983;49.966;8.052;2023-05-27T09:25:54;23.20;90.60
11848;DHT22;5983;49.966;8.052;2023-05-27T09:28:25;22.80;88.20
11848;DHT22;5983;49.966;8.052;2023-05-27T09:30:58;22.60;89.70
11848;DHT22;5983;49.966;8.052;2023-05-27T09:33:31;22.50;90.60
11848;DHT22;5983;49.966;8.052;2023-05-27T09:36:00;22.50;90.50
11848;DHT22;5983;49.966;8.052;2023-05-27T09:38:28;22.50;90.70
11848;DHT22;5983;49.966;8.052;2023-05-27T09:40:55;22.50;90.70
11848;DHT22;5983;49.966;8.052;2023-05-27T09:43:23;22.50;90.40
11848;DHT22;5983;49.966;8.052;2023-05-27T09:45:52;22.50;91.80
11848;DHT22;5983;49.966;8.052;2023-05-27T09:48:26;22.60;91.10
11848;DHT22;5983;49.966;8.052;2023-05-27T09:50:56;22.70;91.10
11848;DHT22;5983;49.966;8.052;2023-05-27T09:53:24;22.70;91.30
11848;DHT22;5983;49.966;8.052;2023-05-27T09:55:52;22.80;91.60
11848;DHT22;5983;49.966;8.052;2023-05-27T09:58:20;22.90;91.70
11848;DHT22;5983;49.966;8.052;2023-05-27T10:00:48;23.00;90.50
11848;DHT22;5983;49.966;8.052;2023-05-27T10:03:16;22.90;90.10
11848;DHT22;5983;49.966;8.052;2023-05-27T10:05:45;22.90;90.60
11848;DHT22;5983;49.966;8.052;2023-05-27T10:08:15;23.00;90.90
11848;DHT22;5983;49.966;8.052;2023-05-27T10:10:42;23.00;90.10
11848;DHT22;5983;49.966;8.052;2023-05-27T10:13:10;23.00;90.50
11848;DHT22;5983;49.966;8.052;2023-05-27T10:15:38;23.10;90.80
11848;DHT22;5983;49.966;8.052;2023-05-27T10:18:06;23.30;90.70
11848;DHT22;5983;49.966;8.052;2023-05-27T10:20:37;23.40;90.40
11848;DHT22;5983;49.966;8.052;2023-05-27T10:23:13;23.50;90.60
11848;DHT22;5983;49.966;8.052;2023-05-27T10:25:46;23.60;87.20
11848;DHT22;5983;49.966;8.052;2023-05-27T10:28:23;23.50;87.80
11848;DHT22;5983;49.966;8.052;2023-05-27T10:30:52;23.60;89.60
11848;DHT22;5983;49.966;8.052;2023-05-27T10:33:28;23.60;89.50
11848;DHT22;5983;49.966;8.052;2023-05-27T10:35:56;23.70;89.20
11848;DHT22;5983;49.966;8.052;2023-05-27T10:38:24;23.70;86.80
11848;DHT22;5983;49.966;8.052;2023-05-27T10:40:59;23.70;85.50
11848;DHT22;5983;49.966;8.052;2023-05-27T10:43:28;23.70;85.10
11848;DHT22;5983;49.966;8.052;2023-05-27T10:46:02;23.70;87.10
11848;DHT22;5983;49.966;8.052;2023-05-27T10:48:33;23.60;85.60
11848;DHT22;5983;49.966;8.052;2023-05-27T10:51:02;23.70;85.00
11848;DHT22;5983;49.966;8.052;2023-05-27T10:53:31;23.70;84.30
11848;DHT22;5983;49.966;8.052;2023-05-27T10:55:59;23.70;86.10
11848;DHT22;5983;49.966;8.052;2023-05-27T10:58:27;23.90;86.90
11848;DHT22;5983;49.966;8.052;2023-05-27T11:00:55;24.00;84.30
11848;DHT22;5983;49.966;8.052;2023-05-27T11:03:24;24.00;84.60
11848;DHT22;5983;49.966;8.052;2023-05-27T11:06:00;24.10;83.00
11848;DHT22;5983;49.966;8.052;2023-05-27T11:08:29;24.10;83.50
11848;DHT22;5983;49.966;8.052;2023-05-27T11:10:59;24.30;84.60
11848;DHT22;5983;49.966;8.052;2023-05-27T11:13:33;24.30;81.20
11848;DHT22;5983;49.966;8.052;2023-05-27T11:16:02;24.30;80.30
11848;DHT22;5983;49.966;8.052;2023-05-27T11:18:38;24.30;80.90
11848;DHT22;5983;49.966;8.052;2023-05-27T11:21:06;24.40;82.00
11848;DHT22;5983;49.966;8.052;2023-05-27T11:23:36;24.50;80.40
11848;DHT22;5983;49.966;8.052;2023-05-27T11:26:10;24.50;81.60
11848;DHT22;5983;49.966;8.052;2023-05-27T11:28:45;24.70;81.10
11848;DHT22;5983;49.966;8.052;2023-05-27T11:31:13;24.60;80.40
11848;DHT22;5983;49.966;8.052;2023-05-27T11:33:41;24.60;79.20
11848;DHT22;5983;49.966;8.052;2023-05-27T11:36:11;24.50;77.20
11848;DHT22;5983;49.966;8.052;2023-05-27T11:38:48;24.50;78.50
11848;DHT22;5983;49.966;8.052;2023-05-27T11:41:17;24.60;78.30
11848;DHT22;5983;49.966;8.052;2023-05-27T11:43:48;24.60;79.10
11848;DHT22;5983;49.966;8.052;2023-05-27T11:46:16;24.70;79.20
11848;DHT22;5983;49.966;8.052;2023-05-27T11:48:44;24.80;79.60
11848;DHT22;5983;49.966;8.052;2023-05-27T11:51:11;24.90;77.20
11848;DHT22;5983;49.966;8.052;2023-05-27T11:53:39;24.90;77.40
11848;DHT22;5983;49.966;8.052;2023-05-27T11:56:08;24.80;77.70
11848;DHT22;5983;49.966;8.052;2023-05-27T11:58:35;24.90;78.30
11848;DHT22;5983;49.966;8.052;2023-05-27T12:01:03;24.90;78.40
11848;DHT22;5983;49.966;8.052;2023-05-27T12:03:33;24.90;77.80
11848;DHT22;5983;49.966;8.052;2023-05-27T12:06:00;24.90;75.40
11848;DHT22;5983;49.966;8.052;2023-05-27T12:08:28;24.90;75.90
11848;DHT22;5983;49.966;8.052;2023-05-27T12:10:56;25.00;76.60
11848;DHT22;5983;49.966;8.052;2023-05-27T12:13:24;25.20;75.70
11848;DHT22;5983;49.966;8.052;2023-05-27T12:15:51;25.30;76.00
11848;DHT22;5983;49.966;8.052;2023-05-27T12:18:18;25.10;73.70
11848;DHT22;5983;49.966;8.052;2023-05-27T12:20:45;25.10;74.00
11848;DHT22;5983;49.966;8.052;2023-05-27T12:23:12;25.00;74.00
11848;DHT22;5983;49.966;8.052;2023-05-27T12:25:39;25.10;73.50
11848;DHT22;5983;49.966;8.052;2023-05-27T12:28:07;25.00;73.80
11848;DHT22;5983;49.966;8.052;2023-05-27T12:30:36;25.00;72.10
11848;DHT22;5983;49.966;8.052;2023-05-27T12:33:04;24.90;73.30
11848;DHT22;5983;49.966;8.052;2023-05-27T12:35:32;24.90;71.50
11848;DHT22;5983;49.966;8.052;2023-05-27T12:38:00;24.90;71.70
11848;DHT22;5983;49.966;8.052;2023-05-27T12:40:27;24.90;72.00
11848;DHT22;5983;49.966;8.052;2023-05-27T12:42:54;24.90;72.80
11848;DHT22;5983;49.966;8.052;2023-05-27T12:45:21;25.00;73.10
11848;DHT22;5983;49.966;8.052;2023-05-27T12:47:51;25.10;73.10
11848;DHT22;5983;49.966;8.052;2023-05-27T12:50:18;25.10;71.50
11848;DHT22;5983;49.966;8.052;2023-05-27T12:52:46;25.00;70.00
11848;DHT22;5983;49.966;8.052;2023-05-27T12:55:16;24.90;70.90
11848;DHT22;5983;49.966;8.052;2023-05-27T12:57:43;24.90;71.70
11848;DHT22;5983;49.966;8.052;2023-05-27T13:00:11;24.90;72.40
11848;DHT22;5983;49.966;8.052;2023-05-27T13:02:39;25.10;70.50
11848;DHT22;5983;49.966;8.052;2023-05-27T13:05:08;25.00;69.90
11848;DHT22;5983;49.966;8.052;2023-05-27T13:07:36;25.00;71.00
11848;DHT22;5983;49.966;8.052;2023-05-27T13:10:06;25.10;70.80
11848;DHT22;5983;49.966;8.052;2023-05-27T13:12:38;25.00;69.10
11848;DHT22;5983;49.966;8.052;2023-05-27T13:15:06;24.90;70.30
11848;DHT22;5983;49.966;8.052;2023-05-27T13:17:34;25.00;71.00
11848;DHT22;5983;49.966;8.052;2023-05-27T13:20:02;25.00;69.80
11848;DHT22;5983;49.966;8.052;2023-05-27T13:22:31;25.10;70.90
11848;DHT22;5983;49.966;8.052;2023-05-27T13:24:58;25.10;71.00
11848;DHT22;5983;49.966;8.052;2023-05-27T13:27:25;25.10;69.80
11848;DHT22;5983;49.966;8.052;2023-05-27T13:29:53;25.10;68.10
11848;DHT22;5983;49.966;8.052;2023-05-27T13:32:20;24.90;67.60
11848;DHT22;5983;49.966;8.052;2023-05-27T13:34:47;24.90;68.30
11848;DHT22;5983;49.966;8.052;2023-05-27T13:37:14;24.80;68.30
11848;DHT22;5983;49.966;8.052;2023-05-27T13:39:42;24.70;68.80
11848;DHT22;5983;49.966;8.052;2023-05-27T13:42:09;24.70;68.40
11848;DHT22;5983;49.966;8.052;2023-05-27T13:44:36;24.80;70.10
11848;DHT22;5983;49.966;8.052;2023-05-27T13:47:04;24.90;71.30
11848;DHT22;5983;49.966;8.052;2023-05-27T13:49:31;24.90;70.90
11848;DHT22;5983;49.966;8.052;2023-05-27T13:51:58;25.00;71.90
11848;DHT22;5983;49.966;8.052;2023-05-27T13:54:25;25.10;69.60
11848;DHT22;5983;49.966;8.052;2023-05-27T13:56:54;25.10;67.40
11848;DHT22;5983;49.966;8.052;2023-05-27T13:59:21;25.10;67.70
11848;DHT22;5983;49.966;8.052;2023-05-27T14:01:48;25.10;67.90
11848;DHT22;5983;49.966;8.052;2023-05-27T14:04:15;25.10;66.20
11848;DHT22;5983;49.966;8.052;2023-05-27T14:06:42;25.00;67.20
11848;DHT22;5983;49.966;8.052;2023-05-27T14:09:09;24.90;69.20
11848;DHT22;5983;49.966;8.052;2023-05-27T14:11:36;24.90;69.30
11848;DHT22;5983;49.966;8.052;2023-05-27T14:14:06;24.90;69.00
11848;DHT22;5983;49.966;8.052;2023-05-27T14:16:32;24.90;68.30
11848;DHT22;5983;49.966;8.052;2023-05-27T14:18:59;25.00;68.90
11848;DHT22;5983;49.966;8.052;2023-05-27T14:21:26;25.00;68.40
11848;DHT22;5983;49.966;8.052;2023-05-27T14:23:53;24.90;68.00
11848;DHT22;5983;49.966;8.052;2023-05-27T14:26:21;24.90;68.20
11848;DHT22;5983;49.966;8.052;2023-05-27T14:28:48;24.90;68.60
11848;DHT22;5983;49.966;8.052;2023-05-27T14:31:16;24.90;68.50
11848;DHT22;5983;49.966;8.052;2023-05-27T14:33:43;24.90;69.80
11848;DHT22;5983;49.966;8.052;2023-05-27T14:36:10;24.90;70.00
11848;DHT22;5983;49.966;8.052;2023-05-27T14:38:37;25.00;68.50
11848;DHT22;5983;49.966;8.052;2023-05-27T14:41:04;24.90;67.60
11848;DHT22;5983;49.966;8.052;2023-05-27T14:43:31;24.90;68.40
11848;DHT22;5983;49.966;8.052;2023-05-27T14:45:58;24.90;68.10
11848;DHT22;5983;49.966;8.052;2023-05-27T14:48:27;24.90;68.50
11848;DHT22;5983;49.966;8.052;2023-05-27T14:50:54;24.90;69.20
11848;DHT22;5983;49.966;8.052;2023-05-27T14:53:21;24.80;69.70
11848;DHT22;5983;49.966;8.052;2023-05-27T14:55:48;24.80;69.40
11848;DHT22;5983;49.966;8.052;2023-05-27T14:58:17;24.80;69.10
11848;DHT22;5983;49.966;8.052;2023-05-27T15:00:44;24.80;69.30
11848;DHT22;5983;49.966;8.052;2023-05-27T15:03:11;24.80;67.10
11848;DHT22;5983;49.966;8.052;2023-05-27T15:05:39;24.80;66.40
11848;DHT22;5983;49.966;8.052;2023-05-27T15:08:06;24.70;65.20
11848;DHT22;5983;49.966;8.052;2023-05-27T15:10:38;24.60;65.10
11848;DHT22;5983;49.966;8.052;2023-05-27T15:13:05;24.60;66.40
11848;DHT22;5983;49.966;8.052;2023-05-27T15:15:32;24.60;65.70
11848;DHT22;5983;49.966;8.052;2023-05-27T15:18:00;24.60;66.00
11848;DHT22;5983;49.966;8.052;2023-05-27T15:20:31;24.60;65.20
11848;DHT22;5983;49.966;8.052;2023-05-27T15:22:59;24.60;65.40
11848;DHT22;5983;49.966;8.052;2023-05-27T15:25:26;24.60;66.00
11848;DHT22;5983;49.966;8.052;2023-05-27T15:27:53;24.60;64.80
11848;DHT22;5983;49.966;8.052;2023-05-27T15:30:20;24.50;65.20
11848;DHT22;5983;49.966;8.052;2023-05-27T15:32:47;24.50;65.90
11848;DHT22;5983;49.966;8.052;2023-05-27T15:35:14;24.40;66.30
11848;DHT22;5983;49.966;8.052;2023-05-27T15:37:41;24.40;65.40
11848;DHT22;5983;49.966;8.052;2023-05-27T15:40:10;24.30;66.80
11848;DHT22;5983;49.966;8.052;2023-05-27T15:42:38;24.30;66.90
11848;DHT22;5983;49.966;8.052;2023-05-27T15:45:06;24.30;66.40
11848;DHT22;5983;49.966;8.052;2023-05-27T15:47:34;24.20;65.90
11848;DHT22;5983;49.966;8.052;2023-05-27T15:50:01;24.20;66.40
11848;DHT22;5983;49.966;8.052;2023-05-27T15:52:28;24.10;65.90
11848;DHT22;5983;49.966;8.052;2023-05-27T15:54:55;24.20;65.00
11848;DHT22;5983;49.966;8.052;2023-05-27T15:57:24;24.20;65.70
11848;DHT22;5983;49.966;8.052;2023-05-27T15:59:51;24.10;64.80
11848;DHT22;5983;49.966;8.052;2023-05-27T16:02:19;24.10;65.10
11848;DHT22;5983;49.966;8.052;2023-05-27T16:04:45;24.10;65.50
11848;DHT22;5983;49.966;8.052;2023-05-27T16:07:13;24.00;65.60
11848;DHT22;5983;49.966;8.052;2023-05-27T16:09:40;24.00;65.70
11848;DHT22;5983;49.966;8.052;2023-05-27T16:12:07;24.00;65.80
11848;DHT22;5983;49.966;8.052;2023-05-27T16:14:36;24.00;66.00
11848;DHT22;5983;49.966;8.052;2023-05-27T16:17:03;23.90;65.30
11848;DHT22;5983;49.966;8.052;2023-05-27T16:19:30;23.90;64.90